sensor_id;sensor_type;location;lat;lon;timestamp;pressure;altitude;pressure_sealevel;temperature;humidity
48614;BME280;34408;51.426;5.444;2024-02-14T00:01:07;101379.16;;;10.05;69.82
48614;BME280;34408;51.426;5.444;2024-02-14T00:03:35;101371.91;;;10.05;69.95
48614;BME280;34408;51.426;5.444;2024-02-14T00:06:06;101369.44;;;10.04;70.03
48614;BME280;34408;51.426;5.444;2024-02-14T00:08:34;101371.31;;;10.03;70.12
48614;BME280;34408;51.426;5.444;2024-02-14T00:11:04;101371.31;;;10.03;70.22
48614;BME280;34408;51.426;5.444;2024-02-14T00:13:33;101364.06;;;10.04;70.28
48614;BME280;34408;51.426;5.444;2024-02-14T00:16:02;101345.47;;;10.02;70.33
48614;BME280;34408;51.426;5.444;2024-02-14T00:18:30;101352.72;;;10.02;70.30
48614;BME280;34408;51.426;5.444;2024-02-14T00:20:58;101356.22;;;10.02;70.68
48614;BME280;34408;51.426;5.444;2024-02-14T00:23:27;101353.75;;;10.01;70.46
48614;BME280;34408;51.426;5.444;2024-02-14T00:25:55;101349.41;;;10.00;70.39
48614;BME280;34408;51.426;5.444;2024-02-14T00:28:23;101348.56;;;9.99;70.80
48614;BME280;34408;51.426;5.444;2024-02-14T00:30:53;101346.72;;;10.00;70.51
48614;BME280;34408;51.426;5.444;2024-02-14T00:33:21;101340.53;;;9.99;70.79
48614;BME280;34408;51.426;5.444;2024-02-14T00:35:49;101348.56;;;9.99;70.54
48614;BME280;34408;51.426;5.444;2024-02-14T00:38:17;101341.56;;;9.98;70.73
48614;BME280;34408;51.426;5.444;2024-02-14T00:40:46;101345.06;;;9.99;70.75
48614;BME280;34408;51.426;5.444;2024-02-14T00:43:14;101345.06;;;9.99;70.63
48614;BME280;34408;51.426;5.444;2024-02-14T00:45:42;101328.34;;;9.97;70.84
48614;BME280;34408;51.426;5.444;2024-02-14T00:48:10;101331.63;;;9.99;70.73
48614;BME280;34408;51.426;5.444;2024-02-14T00:50:38;101325.44;;;9.98;70.67
48614;BME280;34408;51.426;5.444;2024-02-14T00:53:05;101334.53;;;9.97;70.48
48614;BME280;34408;51.426;5.444;2024-02-14T00:55:33;101328.94;;;9.99;70.59
48614;BME280;34408;51.426;5.444;2024-02-14T00:58:03;101332.47;;;9.99;70.72
48614;BME280;34408;51.426;5.444;2024-02-14T01:00:31;101332.47;;;9.99;70.86
48614;BME280;34408;51.426;5.444;2024-02-14T01:03:02;101334.31;;;9.99;70.70
48614;BME280;34408;51.426;5.444;2024-02-14T01:05:30;101334.31;;;9.99;70.94
48614;BME280;34408;51.426;5.444;2024-02-14T01:07:58;101328.94;;;9.99;70.95
48614;BME280;34408;51.426;5.444;2024-02-14T01:10:26;101338.88;;;9.98;70.89
48614;BME280;34408;51.426;5.444;2024-02-14T01:12:54;101331.03;;;9.97;71.01
48614;BME280;34408;51.426;5.444;2024-02-14T01:15:23;101343.41;;;9.98;71.11
48614;BME280;34408;51.426;5.444;2024-02-14T01:17:51;101335.34;;;9.98;71.18
48614;BME280;34408;51.426;5.444;2024-02-14T01:20:19;101338.03;;;9.98;71.15
48614;BME280;34408;51.426;5.444;2024-02-14T01:22:47;101346.91;;;9.98;71.02
48614;BME280;34408;51.426;5.444;2024-02-14T01:25:14;101348.56;;;9.99;71.08
48614;BME280;34408;51.426;5.444;2024-02-14T01:27:42;101345.88;;;9.99;70.89
48614;BME280;34408;51.426;5.444;2024-02-14T01:30:11;101349.81;;;9.97;71.21
48614;BME280;34408;51.426;5.444;2024-02-14T01:32:40;101358.28;;;10.00;71.12
48614;BME280;34408;51.426;5.444;2024-02-14T01:35:08;101358.91;;;10.02;71.07
48614;BME280;34408;51.426;5.444;2024-02-14T01:37:36;101358.91;;;10.02;71.16
48614;BME280;34408;51.426;5.444;2024-02-14T01:40:05;101353.53;;;10.02;71.07
48614;BME280;34408;51.426;5.444;2024-02-14T01:42:33;101362.41;;;10.03;71.23
48614;BME280;34408;51.426;5.444;2024-02-14T01:45:01;101355.38;;;10.02;71.19
48614;BME280;34408;51.426;5.444;2024-02-14T01:47:31;101361.38;;;10.04;70.97
48614;BME280;34408;51.426;5.444;2024-02-14T01:50:01;101346.72;;;10.00;71.11
48614;BME280;34408;51.426;5.444;2024-02-14T01:52:29;101362.22;;;10.04;71.19
48614;BME280;34408;51.426;5.444;2024-02-14T01:54:57;101355.19;;;10.03;71.10
48614;BME280;34408;51.426;5.444;2024-02-14T01:57:24;101354.16;;;10.04;71.17
48614;BME280;34408;51.426;5.444;2024-02-14T01:59:53;101359.31;;;10.06;70.96
48614;BME280;34408;51.426;5.444;2024-02-14T02:02:22;101360.56;;;10.03;71.12
48614;BME280;34408;51.426;5.444;2024-02-14T02:04:50;101355.38;;;10.02;71.34
48614;BME280;34408;51.426;5.444;2024-02-14T02:07:19;101358.91;;;10.02;71.33
48614;BME280;34408;51.426;5.444;2024-02-14T02:09:47;101362.41;;;10.03;71.53
48614;BME280;34408;51.426;5.444;2024-02-14T02:12:15;101360.75;;;10.02;71.42
48614;BME280;34408;51.426;5.444;2024-02-14T02:14:43;101354.78;;;10.00;71.41
48614;BME280;34408;51.426;5.444;2024-02-14T02:17:11;101373.38;;;10.01;71.39
48614;BME280;34408;51.426;5.444;2024-02-14T02:19:39;101365.50;;;10.00;71.58
48614;BME280;34408;51.426;5.444;2024-02-14T02:22:06;101367.38;;;9.99;71.99
48614;BME280;34408;51.426;5.444;2024-02-14T02:24:36;101363.66;;;10.00;71.71
48614;BME280;34408;51.426;5.444;2024-02-14T02:27:04;101370.88;;;10.00;71.78
48614;BME280;34408;51.426;5.444;2024-02-14T02:29:32;101371.91;;;9.99;71.77
48614;BME280;34408;51.426;5.444;2024-02-14T02:32:00;101356.63;;;9.99;72.11
48614;BME280;34408;51.426;5.444;2024-02-14T02:34:28;101365.50;;;10.00;71.85
48614;BME280;34408;51.426;5.444;2024-02-14T02:36:56;101368.19;;;10.00;72.12
48614;BME280;34408;51.426;5.444;2024-02-14T02:39:24;101363.84;;;9.99;71.78
48614;BME280;34408;51.426;5.444;2024-02-14T02:41:53;101359.53;;;9.98;72.09
48614;BME280;34408;51.426;5.444;2024-02-14T02:44:23;101364.06;;;9.97;72.05
48614;BME280;34408;51.426;5.444;2024-02-14T02:46:51;101358.69;;;9.97;71.95
48614;BME280;34408;51.426;5.444;2024-02-14T02:49:19;101366.75;;;9.97;72.06
48614;BME280;34408;51.426;5.444;2024-02-14T02:51:47;101354.97;;;9.98;72.19
48614;BME280;34408;51.426;5.444;2024-02-14T02:54:15;101361.16;;;9.99;72.15
48614;BME280;34408;51.426;5.444;2024-02-14T02:56:43;101356.63;;;9.99;72.10
48614;BME280;34408;51.426;5.444;2024-02-14T02:59:12;101359.53;;;9.98;72.23
48614;BME280;34408;51.426;5.444;2024-02-14T03:01:43;101354.97;;;9.98;72.48
48614;BME280;34408;51.426;5.444;2024-02-14T03:04:11;101352.50;;;9.97;72.27
48614;BME280;34408;51.426;5.444;2024-02-14T03:06:41;101357.03;;;9.96;72.22
48614;BME280;34408;51.426;5.444;2024-02-14T03:09:10;101354.16;;;9.98;72.29
48614;BME280;34408;51.426;5.444;2024-02-14T03:11:39;101345.28;;;9.97;72.48
48614;BME280;34408;51.426;5.444;2024-02-14T03:14:07;101359.53;;;9.98;72.51
48614;BME280;34408;51.426;5.444;2024-02-14T03:16:36;101362.22;;;9.98;72.59
48614;BME280;34408;51.426;5.444;2024-02-14T03:19:05;101365.72;;;9.98;72.54
48614;BME280;34408;51.426;5.444;2024-02-14T03:21:33;101364.69;;;9.99;72.38
48614;BME280;34408;51.426;5.444;2024-02-14T03:24:02;101367.56;;;9.98;72.83
48614;BME280;34408;51.426;5.444;2024-02-14T03:26:31;101363.66;;;10.00;72.77
48614;BME280;34408;51.426;5.444;2024-02-14T03:29:00;101357.47;;;10.00;72.46
48614;BME280;34408;51.426;5.444;2024-02-14T03:31:28;101358.50;;;9.99;72.46
48614;BME280;34408;51.426;5.444;2024-02-14T03:33:57;101363.84;;;9.99;73.04
48614;BME280;34408;51.426;5.444;2024-02-14T03:36:25;101366.34;;;10.00;72.63
48614;BME280;34408;51.426;5.444;2024-02-14T03:38:55;101373.38;;;10.01;72.60
48614;BME280;34408;51.426;5.444;2024-02-14T03:41:23;101371.50;;;10.02;72.45
48614;BME280;34408;51.426;5.444;2024-02-14T03:43:50;101376.06;;;10.01;72.69
48614;BME280;34408;51.426;5.444;2024-02-14T03:46:21;101374.19;;;10.02;72.71
48614;BME280;34408;51.426;5.444;2024-02-14T03:48:49;101370.47;;;10.03;72.87
48614;BME280;34408;51.426;5.444;2024-02-14T03:51:18;101380.38;;;10.02;72.70
48614;BME280;34408;51.426;5.444;2024-02-14T03:53:46;101381.22;;;10.03;72.80
48614;BME280;34408;51.426;5.444;2024-02-14T03:56:14;101376.88;;;10.02;73.46
48614;BME280;34408;51.426;5.444;2024-02-14T03:58:43;101358.91;;;9.96;72.68
48614;BME280;34408;51.426;5.444;2024-02-14T04:01:11;101375.84;;;10.03;72.83
48614;BME280;34408;51.426;5.444;2024-02-14T04:03:38;101384.72;;;10.03;73.23
48614;BME280;34408;51.426;5.444;2024-02-14T04:06:06;101386.59;;;10.03;72.87
48614;BME280;34408;51.426;5.444;2024-02-14T04:08:35;101390.50;;;10.00;72.91
48614;BME280;34408;51.426;5.444;2024-02-14T04:11:04;101384.94;;;10.02;73.25
48614;BME280;34408;51.426;5.444;2024-02-14T04:13:31;101392.16;;;10.01;73.25
48614;BME280;34408;51.426;5.444;2024-02-14T04:15:59;101377.91;;;10.01;73.33
48614;BME280;34408;51.426;5.444;2024-02-14T04:18:27;101392.38;;;10.00;73.77
48614;BME280;34408;51.426;5.444;2024-02-14T04:20:55;101389.69;;;10.00;73.66
48614;BME280;34408;51.426;5.444;2024-02-14T04:23:23;101388.66;;;10.01;73.18
48614;BME280;34408;51.426;5.444;2024-02-14T04:25:53;101391.13;;;10.02;73.27
48614;BME280;34408;51.426;5.444;2024-02-14T04:28:21;101394.84;;;10.01;73.38
48614;BME280;34408;51.426;5.444;2024-02-14T04:30:49;101395.66;;;10.02;73.42
48614;BME280;34408;51.426;5.444;2024-02-14T04:33:16;101396.50;;;10.02;73.42
48614;BME280;34408;51.426;5.444;2024-02-14T04:35:45;101385.97;;;10.01;73.14
48614;BME280;34408;51.426;5.444;2024-02-14T04:38:13;101400.63;;;9.98;73.23
48614;BME280;34408;51.426;5.444;2024-02-14T04:40:40;101395.66;;;10.02;73.51
48614;BME280;34408;51.426;5.444;2024-02-14T04:43:09;101395.66;;;10.02;73.14
48614;BME280;34408;51.426;5.444;2024-02-14T04:45:37;101400.22;;;10.01;73.36
48614;BME280;34408;51.426;5.444;2024-02-14T04:48:06;101402.06;;;10.01;73.31
48614;BME280;34408;51.426;5.444;2024-02-14T04:50:34;101405.38;;;10.03;72.99
48614;BME280;34408;51.426;5.444;2024-02-14T04:53:04;101387.81;;;9.94;73.74
48614;BME280;34408;51.426;5.444;2024-02-14T04:55:31;101414.47;;;10.02;73.55
48614;BME280;34408;51.426;5.444;2024-02-14T04:57:59;101402.06;;;10.01;73.18
48614;BME280;34408;51.426;5.444;2024-02-14T05:00:28;101410.13;;;10.01;73.52
48614;BME280;34408;51.426;5.444;2024-02-14T05:02:56;101402.91;;;10.01;73.65
48614;BME280;34408;51.426;5.444;2024-02-14T05:05:24;101407.44;;;10.01;73.57
48614;BME280;34408;51.426;5.444;2024-02-14T05:07:52;101409.09;;;10.02;73.92
48614;BME280;34408;51.426;5.444;2024-02-14T05:10:20;101415.50;;;10.01;73.86
48614;BME280;34408;51.426;5.444;2024-02-14T05:12:48;101411.16;;;10.00;74.19
48614;BME280;34408;51.426;5.444;2024-02-14T05:15:16;101417.34;;;10.00;73.88
48614;BME280;34408;51.426;5.444;2024-02-14T05:17:45;101413.66;;;10.01;74.30
48614;BME280;34408;51.426;5.444;2024-02-14T05:20:14;101425.41;;;10.00;74.27
48614;BME280;34408;51.426;5.444;2024-02-14T05:22:42;101421.69;;;10.01;74.26
48614;BME280;34408;51.426;5.444;2024-02-14T05:25:10;101421.50;;;10.03;74.08
48614;BME280;34408;51.426;5.444;2024-02-14T05:27:38;101422.31;;;10.03;74.49
48614;BME280;34408;51.426;5.444;2024-02-14T05:30:06;101420.47;;;10.04;74.11
48614;BME280;34408;51.426;5.444;2024-02-14T05:32:36;101423.16;;;10.04;74.02
48614;BME280;34408;51.426;5.444;2024-02-14T05:35:06;101423.16;;;10.04;74.59
48614;BME280;34408;51.426;5.444;2024-02-14T05:37:34;101424.81;;;10.05;74.33
48614;BME280;34408;51.426;5.444;2024-02-14T05:40:06;101426.47;;;10.06;74.83
48614;BME280;34408;51.426;5.444;2024-02-14T05:42:34;101423.78;;;10.06;74.45
48614;BME280;34408;51.426;5.444;2024-02-14T05:45:02;101425.63;;;10.05;73.94
48614;BME280;34408;51.426;5.444;2024-02-14T05:47:30;101422.94;;;10.05;74.10
48614;BME280;34408;51.426;5.444;2024-02-14T05:49:59;101426.47;;;10.06;74.60
48614;BME280;34408;51.426;5.444;2024-02-14T05:52:28;101426.47;;;10.06;74.27
48614;BME280;34408;51.426;5.444;2024-02-14T05:54:56;101426.47;;;10.06;74.43
48614;BME280;34408;51.426;5.444;2024-02-14T05:57:24;101421.91;;;10.06;74.79
48614;BME280;34408;51.426;5.444;2024-02-14T05:59:51;101423.56;;;10.07;74.55
48614;BME280;34408;51.426;5.444;2024-02-14T06:02:19;101432.44;;;10.08;74.09
48614;BME280;34408;51.426;5.444;2024-02-14T06:04:48;101435.97;;;10.08;74.55
48614;BME280;34408;51.426;5.444;2024-02-14T06:07:15;101428.72;;;10.09;74.32
48614;BME280;34408;51.426;5.444;2024-02-14T06:09:44;101433.47;;;10.07;74.49
48614;BME280;34408;51.426;5.444;2024-02-14T06:12:12;101443.41;;;10.06;74.66
48614;BME280;34408;51.426;5.444;2024-02-14T06:14:40;101445.88;;;10.08;74.88
48614;BME280;34408;51.426;5.444;2024-02-14T06:17:08;101441.53;;;10.07;74.39
48614;BME280;34408;51.426;5.444;2024-02-14T06:19:36;101452.28;;;10.07;74.79
48614;BME280;34408;51.426;5.444;2024-02-14T06:22:06;101451.44;;;10.06;74.50
48614;BME280;34408;51.426;5.444;2024-02-14T06:24:34;101454.97;;;10.07;75.15
48614;BME280;34408;51.426;5.444;2024-02-14T06:27:04;101454.13;;;10.06;74.30
48614;BME280;34408;51.426;5.444;2024-02-14T06:29:32;101445.88;;;10.08;74.17
48614;BME280;34408;51.426;5.444;2024-02-14T06:32:00;101455.16;;;10.05;74.49
48614;BME280;34408;51.426;5.444;2024-02-14T06:34:28;101454.13;;;10.06;74.33
48614;BME280;34408;51.426;5.444;2024-02-14T06:36:57;101463.03;;;10.07;74.35
48614;BME280;34408;51.426;5.444;2024-02-14T06:39:24;101468.19;;;10.08;74.28
48614;BME280;34408;51.426;5.444;2024-02-14T06:41:54;101454.94;;;10.00;74.56
48614;BME280;34408;51.426;5.444;2024-02-14T06:44:25;101460.97;;;10.09;74.04
48614;BME280;34408;51.426;5.444;2024-02-14T06:46:53;101467.16;;;10.09;74.24
48614;BME280;34408;51.426;5.444;2024-02-14T06:49:21;101475.22;;;10.09;74.21
48614;BME280;34408;51.426;5.444;2024-02-14T06:51:48;101466.31;;;10.02;74.27
48614;BME280;34408;51.426;5.444;2024-02-14T06:54:16;101479.56;;;10.10;74.21
48614;BME280;34408;51.426;5.444;2024-02-14T06:56:46;101486.16;;;10.08;74.56
48614;BME280;34408;51.426;5.444;2024-02-14T06:59:14;101490.50;;;10.09;74.20
48614;BME280;34408;51.426;5.444;2024-02-14T07:01:43;101488.03;;;10.07;74.26
48614;BME280;34408;51.426;5.444;2024-02-14T07:04:11;101491.53;;;10.08;74.49
48614;BME280;34408;51.426;5.444;2024-02-14T07:06:39;101499.38;;;10.09;74.74
48614;BME280;34408;51.426;5.444;2024-02-14T07:09:06;101495.03;;;10.08;74.79
48614;BME280;34408;51.426;5.444;2024-02-14T07:11:38;101495.88;;;10.09;74.76
48614;BME280;34408;51.426;5.444;2024-02-14T07:14:06;101495.03;;;10.08;74.34
48614;BME280;34408;51.426;5.444;2024-02-14T07:16:34;101502.06;;;10.09;74.41
48614;BME280;34408;51.426;5.444;2024-02-14T07:19:03;101496.69;;;10.09;74.91
48614;BME280;34408;51.426;5.444;2024-02-14T07:21:31;101504.75;;;10.09;74.94
48614;BME280;34408;51.426;5.444;2024-02-14T07:23:59;101501.03;;;10.10;74.88
48614;BME280;34408;51.426;5.444;2024-02-14T07:26:27;101505.19;;;10.13;74.72
48614;BME280;34408;51.426;5.444;2024-02-14T07:28:55;101502.50;;;10.13;74.53
48614;BME280;34408;51.426;5.444;2024-02-14T07:31:23;101502.50;;;10.13;74.77
48614;BME280;34408;51.426;5.444;2024-02-14T07:33:51;101505.19;;;10.13;75.11
48614;BME280;34408;51.426;5.444;2024-02-14T07:36:22;101501.47;;;10.14;75.04
48614;BME280;34408;51.426;5.444;2024-02-14T07:38:50;101500.44;;;10.15;75.11
48614;BME280;34408;51.426;5.444;2024-02-14T07:41:18;101503.94;;;10.16;75.28
48614;BME280;34408;51.426;5.444;2024-02-14T07:43:46;101502.09;;;10.16;75.29
48614;BME280;34408;51.426;5.444;2024-02-14T07:46:17;101503.13;;;10.15;75.34
48614;BME280;34408;51.426;5.444;2024-02-14T07:48:44;101501.25;;;10.16;75.68
48614;BME280;34408;51.426;5.444;2024-02-14T07:51:12;101507.66;;;10.15;75.69
48614;BME280;34408;51.426;5.444;2024-02-14T07:53:42;101509.31;;;10.16;75.42
48614;BME280;34408;51.426;5.444;2024-02-14T07:56:10;101499.59;;;10.15;75.43
48614;BME280;34408;51.426;5.444;2024-02-14T07:58:37;101510.16;;;10.16;74.89
48614;BME280;34408;51.426;5.444;2024-02-14T08:01:05;101512.63;;;10.18;74.95
48614;BME280;34408;51.426;5.444;2024-02-14T08:03:33;101507.06;;;10.19;74.63
48614;BME280;34408;51.426;5.444;2024-02-14T08:06:01;101511.44;;;10.20;74.52
48614;BME280;34408;51.426;5.444;2024-02-14T08:08:29;101510.41;;;10.21;74.41
48614;BME280;34408;51.426;5.444;2024-02-14T08:10:58;101509.38;;;10.22;74.38
48614;BME280;34408;51.426;5.444;2024-02-14T08:13:26;101512.88;;;10.23;74.25
48614;BME280;34408;51.426;5.444;2024-02-14T08:15:55;101509.56;;;10.21;74.42
48614;BME280;34408;51.426;5.444;2024-02-14T08:18:22;101519.09;;;10.30;74.24
48614;BME280;34408;51.426;5.444;2024-02-14T08:20:50;101518.88;;;10.25;74.31
48614;BME280;34408;51.426;5.444;2024-02-14T08:23:18;101516.41;;;10.23;74.29
48614;BME280;34408;51.426;5.444;2024-02-14T08:25:47;101517.22;;;10.24;74.11
48614;BME280;34408;51.426;5.444;2024-02-14T08:28:16;101508.75;;;10.20;74.22
48614;BME280;34408;51.426;5.444;2024-02-14T08:30:47;101513.91;;;10.22;74.54
48614;BME280;34408;51.426;5.444;2024-02-14T08:33:15;101510.00;;;10.24;74.73
48614;BME280;34408;51.426;5.444;2024-02-14T08:35:43;101514.75;;;10.29;74.22
48614;BME280;34408;51.426;5.444;2024-02-14T08:38:14;101525.31;;;10.30;74.27
48614;BME280;34408;51.426;5.444;2024-02-14T08:40:41;101522.22;;;10.33;74.07
48614;BME280;34408;51.426;5.444;2024-02-14T08:43:09;101525.31;;;10.30;74.14
48614;BME280;34408;51.426;5.444;2024-02-14T08:45:39;101516.63;;;10.28;74.37
48614;BME280;34408;51.426;5.444;2024-02-14T08:48:07;101515.78;;;10.28;74.15
48614;BME280;34408;51.426;5.444;2024-02-14T08:50:35;101525.50;;;10.29;74.01
48614;BME280;34408;51.426;5.444;2024-02-14T08:53:03;101522.81;;;10.29;74.34
48614;BME280;34408;51.426;5.444;2024-02-14T08:55:31;101523.03;;;10.34;74.21
48614;BME280;34408;51.426;5.444;2024-02-14T08:58:00;101525.09;;;10.32;74.03
48614;BME280;34408;51.426;5.444;2024-02-14T09:00:28;101526.75;;;10.33;74.39
48614;BME280;34408;51.426;5.444;2024-02-14T09:02:58;101535.22;;;10.36;74.20
48614;BME280;34408;51.426;5.444;2024-02-14T09:05:27;101536.69;;;10.52;73.66
48614;BME280;34408;51.426;5.444;2024-02-14T09:07:56;101539.81;;;10.69;72.99
48614;BME280;34408;51.426;5.444;2024-02-14T09:10:25;101546.63;;;10.85;72.46
48614;BME280;34408;51.426;5.444;2024-02-14T09:12:53;101545.81;;;11.04;72.43
48614;BME280;34408;51.426;5.444;2024-02-14T09:15:21;101554.28;;;11.07;71.53
48614;BME280;34408;51.426;5.444;2024-02-14T09:17:50;101555.75;;;11.10;71.57
48614;BME280;34408;51.426;5.444;2024-02-14T09:20:20;101554.28;;;11.07;71.53
48614;BME280;34408;51.426;5.444;2024-02-14T09:22:48;101554.91;;;11.03;71.90
48614;BME280;34408;51.426;5.444;2024-02-14T09:25:16;101557.41;;;10.98;72.39
48614;BME280;34408;51.426;5.444;2024-02-14T09:27:44;101556.16;;;10.94;72.27
48614;BME280;34408;51.426;5.444;2024-02-14T09:30:13;101560.28;;;10.90;72.56
48614;BME280;34408;51.426;5.444;2024-02-14T09:32:57;101556.97;;;10.88;72.70
48614;BME280;34408;51.426;5.444;2024-02-14T09:35:27;101548.50;;;10.84;72.70
48614;BME280;34408;51.426;5.444;2024-02-14T09:37:55;101539.19;;;10.87;72.60
48614;BME280;34408;51.426;5.444;2024-02-14T09:40:22;101558.22;;;11.05;72.49
48614;BME280;34408;51.426;5.444;2024-02-14T09:42:53;101566.50;;;11.17;72.37
48614;BME280;34408;51.426;5.444;2024-02-14T09:45:24;101564.41;;;11.25;71.89
48614;BME280;34408;51.426;5.444;2024-02-14T09:47:53;101567.28;;;11.44;71.37
48614;BME280;34408;51.426;5.444;2024-02-14T09:50:23;101569.94;;;11.63;70.49
48614;BME280;34408;51.426;5.444;2024-02-14T09:52:53;101567.03;;;11.78;70.25
48614;BME280;34408;51.426;5.444;2024-02-14T09:55:23;101578.78;;;11.97;69.57
48614;BME280;34408;51.426;5.444;2024-02-14T09:57:52;101561.94;;;12.08;69.13
48614;BME280;34408;51.426;5.444;2024-02-14T10:00:22;101567.28;;;12.15;69.06
48614;BME280;34408;51.426;5.444;2024-02-14T10:02:50;101574.06;;;12.24;68.93
48614;BME280;34408;51.426;5.444;2024-02-14T10:05:18;101574.25;;;12.29;68.73
48614;BME280;34408;51.426;5.444;2024-02-14T10:07:45;101567.59;;;12.31;68.77
48614;BME280;34408;51.426;5.444;2024-02-14T10:10:15;101575.88;;;12.36;68.44
48614;BME280;34408;51.426;5.444;2024-02-14T10:12:43;101566.97;;;12.36;68.17
48614;BME280;34408;51.426;5.444;2024-02-14T10:15:11;101570.44;;;12.43;68.10
48614;BME280;34408;51.426;5.444;2024-02-14T10:17:39;101566.09;;;12.42;67.84
48614;BME280;34408;51.426;5.444;2024-02-14T10:20:09;101574.81;;;12.37;68.02
48614;BME280;34408;51.426;5.444;2024-02-14T10:22:38;101574.47;;;12.27;68.95
48614;BME280;34408;51.426;5.444;2024-02-14T10:25:06;101580.38;;;12.11;68.82
48614;BME280;34408;51.426;5.444;2024-02-14T10:27:38;101582.72;;;11.94;69.78
48614;BME280;34408;51.426;5.444;2024-02-14T10:30:07;101592.09;;;11.79;70.50
48614;BME280;34408;51.426;5.444;2024-02-14T10:32:37;101586.50;;;11.67;71.15
48614;BME280;34408;51.426;5.444;2024-02-14T10:35:06;101594.38;;;11.62;70.63
48614;BME280;34408;51.426;5.444;2024-02-14T10:37:35;101596.47;;;11.60;70.93
48614;BME280;34408;51.426;5.444;2024-02-14T10:40:05;101589.66;;;11.51;71.69
48614;BME280;34408;51.426;5.444;2024-02-14T10:42:33;101587.56;;;11.46;71.65
48614;BME280;34408;51.426;5.444;2024-02-14T10:45:03;101589.84;;;11.43;71.85
48614;BME280;34408;51.426;5.444;2024-02-14T10:47:34;101583.66;;;11.35;72.34
48614;BME280;34408;51.426;5.444;2024-02-14T10:50:04;101594.84;;;11.32;72.47
48614;BME280;34408;51.426;5.444;2024-02-14T10:52:34;101583.88;;;11.27;72.92
48614;BME280;34408;51.426;5.444;2024-02-14T10:55:05;101585.75;;;11.27;73.15
48614;BME280;34408;51.426;5.444;2024-02-14T10:57:33;101583.47;;;11.24;72.90
48614;BME280;34408;51.426;5.444;2024-02-14T11:00:05;101585.13;;;11.31;73.17
48614;BME280;34408;51.426;5.444;2024-02-14T11:02:35;101585.53;;;11.22;73.18
48614;BME280;34408;51.426;5.444;2024-02-14T11:05:04;101590.91;;;11.22;73.43
48614;BME280;34408;51.426;5.444;2024-02-14T11:07:33;101590.91;;;11.22;73.35
48614;BME280;34408;51.426;5.444;2024-02-14T11:10:04;101591.13;;;11.20;73.72
48614;BME280;34408;51.426;5.444;2024-02-14T11:12:34;101594.22;;;11.17;73.90
48614;BME280;34408;51.426;5.444;2024-02-14T11:15:11;101597.75;;;11.18;74.34
48614;BME280;34408;51.426;5.444;2024-02-14T11:17:39;101588.22;;;11.22;74.18
48614;BME280;34408;51.426;5.444;2024-02-14T11:20:15;101585.72;;;11.33;74.40
48614;BME280;34408;51.426;5.444;2024-02-14T11:22:53;101576.38;;;11.49;73.85
48614;BME280;34408;51.426;5.444;2024-02-14T11:25:23;101578.03;;;11.63;73.36
48614;BME280;34408;51.426;5.444;2024-02-14T11:27:56;101581.94;;;11.81;72.76
48614;BME280;34408;51.426;5.444;2024-02-14T11:30:34;101576.09;;;11.97;72.43
48614;BME280;34408;51.426;5.444;2024-02-14T11:33:12;101572.09;;;12.13;71.79
48614;BME280;34408;51.426;5.444;2024-02-14T11:35:41;101569.06;;;12.27;71.31
48614;BME280;34408;51.426;5.444;2024-02-14T11:38:09;101565.47;;;12.40;70.62
48614;BME280;34408;51.426;5.444;2024-02-14T11:40:37;101573.09;;;12.50;70.33
48614;BME280;34408;51.426;5.444;2024-02-14T11:43:10;101570.44;;;12.43;70.76
48614;BME280;34408;51.426;5.444;2024-02-14T11:45:41;101568.81;;;12.35;71.11
48614;BME280;34408;51.426;5.444;2024-02-14T11:48:13;101571.59;;;12.22;71.33
48614;BME280;34408;51.426;5.444;2024-02-14T11:50:43;101560.91;;;12.09;72.16
48614;BME280;34408;51.426;5.444;2024-02-14T11:53:11;101556.19;;;11.98;72.37
48614;BME280;34408;51.426;5.444;2024-02-14T11:55:40;101555.81;;;11.88;72.50
48614;BME280;34408;51.426;5.444;2024-02-14T11:58:08;101553.97;;;11.82;72.65
48614;BME280;34408;51.426;5.444;2024-02-14T12:00:37;101554.59;;;11.77;72.99
48614;BME280;34408;51.426;5.444;2024-02-14T12:03:11;101555.41;;;11.71;73.09
48614;BME280;34408;51.426;5.444;2024-02-14T12:05:40;101555.84;;;11.68;73.67
48614;BME280;34408;51.426;5.444;2024-02-14T12:08:10;101557.53;;;11.62;73.68
48614;BME280;34408;51.426;5.444;2024-02-14T12:10:38;101554.22;;;11.60;73.58
48614;BME280;34408;51.426;5.444;2024-02-14T12:13:09;101551.69;;;11.72;73.31
48614;BME280;34408;51.426;5.444;2024-02-14T12:15:39;101551.72;;;11.65;73.65
48614;BME280;34408;51.426;5.444;2024-02-14T12:18:09;101552.56;;;11.59;73.52
48614;BME280;34408;51.426;5.444;2024-02-14T12:20:38;101542.41;;;11.55;73.72
48614;BME280;34408;51.426;5.444;2024-02-14T12:23:05;101553.59;;;11.52;73.86
48614;BME280;34408;51.426;5.444;2024-02-14T12:25:34;101544.09;;;11.49;74.40
48614;BME280;34408;51.426;5.444;2024-02-14T12:28:02;101541.00;;;11.46;74.19
48614;BME280;34408;51.426;5.444;2024-02-14T12:30:42;101548.44;;;11.44;74.28
48614;BME280;34408;51.426;5.444;2024-02-14T12:33:14;101547.63;;;11.43;74.95
48614;BME280;34408;51.426;5.444;2024-02-14T12:35:42;101544.09;;;11.43;74.66
48614;BME280;34408;51.426;5.444;2024-02-14T12:38:11;101542.44;;;11.41;74.52
48614;BME280;34408;51.426;5.444;2024-02-14T12:40:40;101543.50;;;11.40;74.62
48614;BME280;34408;51.426;5.444;2024-02-14T12:43:09;101536.44;;;11.39;74.54
48614;BME280;34408;51.426;5.444;2024-02-14T12:45:38;101546.38;;;11.39;74.80
48614;BME280;34408;51.426;5.444;2024-02-14T12:48:07;101536.66;;;11.38;75.08
48614;BME280;34408;51.426;5.444;2024-02-14T12:50:37;101525.69;;;11.39;74.81
48614;BME280;34408;51.426;5.444;2024-02-14T12:53:06;101540.19;;;11.38;75.11
48614;BME280;34408;51.426;5.444;2024-02-14T12:55:34;101538.31;;;11.39;75.03
48614;BME280;34408;51.426;5.444;2024-02-14T12:58:02;101551.78;;;11.39;74.84
48614;BME280;34408;51.426;5.444;2024-02-14T13:00:31;101544.72;;;11.38;75.25